CDT,Max TemperatureF,Mean TemperatureF,Min TemperatureF,Max Dew PointF,MeanDew PointF,Min DewpointF,Max Humidity, Mean Humidity, Min Humidity, Max Sea Level PressureIn, Mean Sea Level PressureIn, Min Sea Level PressureIn, Max VisibilityMiles, Mean VisibilityMiles, Min VisibilityMiles, Max Wind SpeedMPH, Mean Wind SpeedMPH, Max Gust SpeedMPH,PrecipitationIn, CloudCover, Events, WindDirDegrees
2013-9-1,74,67,60,64,61,55,96,81,61,29.92,29.81,29.75,10,10,4,15,7,24,0.09,6,Rain-Thunderstorm,287
2013-9-2,64,53,43,55,50,43,99,80,59,30.05,30.01,29.92,10,10,1,13,9,20,0.00,5,,355
2013-9-3,70,54,37,53,48,38,99,79,52,30.10,30.05,30.01,10,7,0,10,2,10,0.00,1,Fog,249
2013-9-4,77,64,50,62,55,49,92,78,57,30.19,30.10,30.02,10,10,10,8,5,,0.00,1,,313
2013-9-5,71,57,43,52,49,43,99,75,44,30.31,30.25,30.20,10,10,10,9,5,,0.00,0,,114
2013-9-6,83,67,52,64,58,50,93,73,49,30.20,30.08,29.96,10,10,10,15,6,20,0.00,4,,184
2013-9-7,87,72,59,69,64,56,96,76,50,30.09,29.96,29.91,10,10,10,15,5,20,0.00,3,,20
2013-9-8,70,58,48,55,51,46,96,73,47,30.14,30.08,29.98,10,10,10,12,7,21,0.00,2,Rain,101
2013-9-9,85,72,59,72,64,54,94,80,61,29.97,29.83,29.71,10,9,4,15,5,22,0.00,4,Rain,161
2013-9-10,81,72,64,68,64,60,96,82,54,29.97,29.90,29.76,10,9,3,12,5,17,0.03,4,Rain,262
2013-9-11,80,66,52,62,58,51,98,76,36,30.05,30.01,29.98,10,10,4,15,6,22,0.00,1,,269
2013-9-12,67,55,44,53,48,42,99,77,47,30.21,30.11,30.00,10,10,7,24,7,30,0.00,4,,343
2013-9-13,63,48,34,46,39,35,99,75,39,30.27,30.21,30.13,10,9,0,8,3,,0.00,0,Fog,10
2013-9-14,69,53,37,52,43,36,99,68,41,30.13,30.06,29.97,10,10,7,14,5,20,0.22,1,Rain,204
2013-9-15,62,50,37,54,49,36,99,88,74,30.31,30.09,29.96,10,9,3,15,4,20,0.34,7,Rain,38
2013-9-16,60,44,30,42,37,30,100,78,42,30.44,30.37,30.31,10,8,0,8,2,,0.00,0,Fog,101
2013-9-17,65,50,36,54,45,36,97,81,48,30.34,30.22,30.05,10,9,4,15,7,20,0.04,2,Rain,156
2013-9-18,71,62,54,66,60,54,99,94,81,30.05,29.92,29.83,10,5,0,12,7,,0.71,6,Fog-Rain-Thunderstorm,153
2013-9-19,76,68,62,69,65,62,99,91,74,29.85,29.78,29.72,10,8,0,15,6,22,0.00,5,Fog-Rain-Thunderstorm,185
2013-9-20,64,56,47,64,55,44,99,89,68,29.86,29.78,29.72,10,9,4,14,7,23,0.01,7,Rain,281
2013-9-21,57,48,39,44,42,38,98,80,57,29.98,29.91,29.85,10,10,7,14,7,17,0.00,4,Rain,315
2013-9-22,60,46,32,42,38,32,100,77,50,30.09,30.03,29.99,10,10,1,8,4,,0.00,0,,118
2013-9-23,65,52,41,50,45,40,97,80,55,30.10,30.06,30.02,10,10,10,14,7,18,0.00,0,,137
2013-9-24,69,56,42,52,47,42,100,81,48,30.06,30.03,29.98,10,7,0,7,4,,0.00,2,Fog,120
2013-9-25,66,52,39,51,46,39,100,83,53,30.04,30.01,29.97,10,7,0,8,2,,0.00,2,Fog,122
2013-9-26,70,57,44,54,49,45,99,79,46,30.08,30.05,30.01,10,8,2,14,6,18,0.00,0,,131
2013-9-27,77,64,52,57,51,47,83,65,44,30.09,30.05,29.98,10,10,10,20,9,29,0.00,0,,151
2013-9-28,74,62,49,62,52,48,97,80,55,30.01,29.88,29.74,10,9,2,24,11,33,0.32,5,Rain,183
2013-9-29,67,53,39,48,45,39,99,76,45,30.02,29.97,29.93,10,9,0,12,6,17,0.00,0,Fog,198
2013-9-30,68,56,45,48,45,43,90,69,41,29.93,29.82,29.74,10,10,10,22,10,36,0.00,0,,170